createdAt,value
2018-01-15T00:00:26.979Z,-77
2018-01-15T00:01:28.200Z,-77
2018-01-15T00:02:27.542Z,-77
2018-01-15T00:03:27.705Z,-77
2018-01-15T00:04:28.806Z,-77
2018-01-15T00:05:27.431Z,-77
2018-01-15T00:06:28.214Z,-77
2018-01-15T00:07:27.085Z,-78
2018-01-15T00:08:27.850Z,-78
2018-01-15T00:09:27.166Z,-78
2018-01-15T00:10:27.634Z,-76
2018-01-15T00:11:27.174Z,-75
2018-01-15T00:12:27.436Z,-77
2018-01-15T00:13:28.672Z,-76
2018-01-15T00:14:26.878Z,-76
2018-01-15T00:15:26.841Z,-76
2018-01-15T00:16:28.179Z,-76
2018-01-15T00:17:27.054Z,-76
2018-01-15T00:18:26.909Z,-76
2018-01-15T00:19:27.664Z,-76
2018-01-15T00:20:26.739Z,-76
2018-01-15T00:21:26.668Z,-76
2018-01-15T00:22:26.826Z,-76
2018-01-15T00:23:26.771Z,-77
2018-01-15T00:24:27.606Z,-78
2018-01-15T00:25:27.042Z,-77
2018-01-15T00:26:26.831Z,-78
2018-01-15T00:27:26.811Z,-77
2018-01-15T00:28:26.657Z,-76
2018-01-15T00:29:26.801Z,-78
2018-01-15T00:30:27.102Z,-77
2018-01-15T00:31:26.995Z,-77
2018-01-15T00:32:26.809Z,-78
2018-01-15T00:33:26.933Z,-75
2018-01-15T00:34:26.851Z,-75
2018-01-15T00:35:26.845Z,-78
2018-01-15T00:36:26.859Z,-78
2018-01-15T00:37:26.868Z,-78
2018-01-15T00:38:27.222Z,-77
2018-01-15T00:39:26.982Z,-78
2018-01-15T00:40:26.743Z,-78
2018-01-15T00:41:26.770Z,-77
2018-01-15T00:42:26.922Z,-78
2018-01-15T00:43:27.064Z,-78
2018-01-15T00:44:27.113Z,-77
2018-01-15T00:45:26.522Z,-78
2018-01-15T00:46:26.920Z,-78
2018-01-15T00:47:26.989Z,-77
2018-01-15T00:48:26.736Z,-78
2018-01-15T00:49:26.896Z,-78
2018-01-15T00:50:26.982Z,-78
2018-01-15T00:51:26.889Z,-77
2018-01-15T00:52:26.867Z,-77
2018-01-15T00:53:26.959Z,-78
2018-01-15T00:54:27.166Z,-78
2018-01-15T00:55:27.151Z,-76
2018-01-15T00:56:27.000Z,-76
2018-01-15T00:57:26.187Z,-76
2018-01-15T00:58:26.783Z,-76
2018-01-15T00:59:26.837Z,-78
2018-01-15T01:00:27.972Z,-78
2018-01-15T01:01:26.941Z,-78
2018-01-15T01:02:26.921Z,-77
2018-01-15T01:03:26.722Z,-78
2018-01-15T01:04:26.825Z,-78
2018-01-15T01:05:26.908Z,-78
2018-01-15T01:06:26.730Z,-78
2018-01-15T01:07:26.527Z,-77
2018-01-15T01:08:26.671Z,-78
2018-01-15T01:09:27.124Z,-78
2018-01-15T01:10:26.973Z,-76
2018-01-15T01:11:26.748Z,-76
2018-01-15T01:12:26.415Z,-77
2018-01-15T01:13:26.727Z,-77
2018-01-15T01:14:26.910Z,-76
2018-01-15T01:15:26.834Z,-77
2018-01-15T01:16:26.984Z,-77
2018-01-15T01:17:26.749Z,-77
2018-01-15T01:18:26.887Z,-77
2018-01-15T01:19:26.587Z,-77
2018-01-15T01:20:26.480Z,-77
2018-01-15T01:21:26.888Z,-77
2018-01-15T01:22:26.630Z,-77
2018-01-15T01:23:26.861Z,-77
2018-01-15T01:24:26.583Z,-77
2018-01-15T01:25:26.920Z,-78
2018-01-15T01:26:26.656Z,-77
2018-01-15T01:27:26.779Z,-77
2018-01-15T01:28:27.201Z,-77
2018-01-15T01:29:26.943Z,-77
2018-01-15T01:30:26.800Z,-77
2018-01-15T01:31:26.553Z,-77
2018-01-15T01:32:26.705Z,-77
2018-01-15T01:33:26.868Z,-77
2018-01-15T01:34:27.183Z,-78
2018-01-15T01:35:26.738Z,-77
2018-01-15T01:36:26.920Z,-77
2018-01-15T01:38:55.489Z,-77
2018-01-15T01:39:26.384Z,-78
2018-01-15T01:40:27.365Z,-77
2018-01-15T01:41:26.979Z,-78
2018-01-15T01:42:25.759Z,-77
2018-01-15T01:43:26.033Z,-77
2018-01-15T01:44:26.053Z,-77
2018-01-15T01:45:25.970Z,-77
2018-01-15T01:46:25.897Z,-76
2018-01-15T01:47:26.104Z,-77
2018-01-15T01:48:25.944Z,-77
2018-01-15T01:49:27.128Z,-77
2018-01-15T01:50:26.020Z,-77
2018-01-15T01:51:26.028Z,-77
2018-01-15T01:52:26.036Z,-77
2018-01-15T01:53:25.894Z,-77
2018-01-15T01:54:26.005Z,-78
2018-01-15T01:55:26.046Z,-78
2018-01-15T01:56:25.890Z,-77
2018-01-15T01:57:25.914Z,-77
2018-01-15T01:58:25.780Z,-77
2018-01-15T01:59:26.037Z,-77
2018-01-15T02:00:26.012Z,-78
2018-01-15T02:01:26.060Z,-77
2018-01-15T02:02:25.995Z,-77
2018-01-15T02:03:25.808Z,-77
2018-01-15T02:04:26.074Z,-77
2018-01-15T02:05:25.836Z,-77
2018-01-15T02:06:25.668Z,-77
2018-01-15T02:07:25.724Z,-77
2018-01-15T02:08:25.937Z,-77
2018-01-15T02:09:25.804Z,-78
2018-01-15T02:10:25.710Z,-77
2018-01-15T02:11:25.990Z,-77
2018-01-15T02:12:25.953Z,-77
2018-01-15T02:13:25.880Z,-77
2018-01-15T02:14:27.362Z,-76
2018-01-15T02:15:26.056Z,-75
2018-01-15T02:16:26.089Z,-76
2018-01-15T02:17:27.179Z,-76
2018-01-15T02:18:27.328Z,-77
2018-01-15T02:19:26.094Z,-77
2018-01-15T02:20:25.932Z,-77
2018-01-15T02:21:25.844Z,-77
2018-01-15T02:22:27.175Z,-77
2018-01-15T02:23:26.132Z,-77
2018-01-15T02:24:25.947Z,-77
2018-01-15T02:25:25.916Z,-76
2018-01-15T02:26:27.490Z,-77
2018-01-15T02:27:25.797Z,-77
2018-01-15T02:28:26.001Z,-77
2018-01-15T02:29:26.044Z,-77
2018-01-15T02:30:25.920Z,-77
2018-01-15T02:31:26.137Z,-78
2018-01-15T02:32:27.203Z,-77
2018-01-15T02:33:27.150Z,-77
2018-01-15T02:34:27.258Z,-77
2018-01-15T02:35:25.857Z,-77
2018-01-15T02:36:25.954Z,-77
2018-01-15T02:37:25.985Z,-77
2018-01-15T02:38:25.870Z,-77
2018-01-15T02:39:27.490Z,-77
2018-01-15T02:40:25.929Z,-77
2018-01-15T02:41:25.891Z,-77
2018-01-15T02:42:25.948Z,-78
2018-01-15T02:43:26.038Z,-78
2018-01-15T02:44:26.007Z,-78
2018-01-15T02:45:25.973Z,-77
2018-01-15T02:46:26.185Z,-78
2018-01-15T02:47:25.955Z,-78
2018-01-15T02:48:26.103Z,-78
2018-01-15T02:49:27.471Z,-78
2018-01-15T02:50:25.917Z,-78
2018-01-15T02:51:26.094Z,-78
2018-01-15T02:52:26.139Z,-78
2018-01-15T02:53:26.030Z,-78
2018-01-15T02:55:26.151Z,-78
2018-01-15T02:56:26.100Z,-78
2018-01-15T02:57:26.221Z,-77
2018-01-15T02:58:26.123Z,-78
2018-01-15T02:59:27.154Z,-78
2018-01-15T03:00:26.966Z,-78
2018-01-15T03:01:27.123Z,-78
2018-01-15T03:02:27.023Z,-78
2018-01-15T03:03:27.319Z,-78
2018-01-15T03:04:27.097Z,-77
2018-01-15T03:05:27.276Z,-76
2018-01-15T03:06:27.225Z,-77
2018-01-15T03:07:27.029Z,-78
2018-01-15T03:08:27.264Z,-78
2018-01-15T03:09:27.130Z,-76
2018-01-15T03:10:26.841Z,-77
2018-01-15T03:11:27.350Z,-77
2018-01-15T03:12:27.242Z,-77
2018-01-15T03:13:27.190Z,-76
2018-01-15T03:14:27.173Z,-77
2018-01-15T03:15:27.405Z,-77
2018-01-15T03:16:26.910Z,-77
2018-01-15T03:17:27.196Z,-77
2018-01-15T03:18:27.100Z,-77
2018-01-15T03:19:27.173Z,-78
2018-01-15T03:20:27.234Z,-77
2018-01-15T03:21:27.181Z,-77
2018-01-15T03:22:26.992Z,-76
2018-01-15T03:23:27.114Z,-76
2018-01-15T03:24:26.956Z,-77
2018-01-15T03:25:27.435Z,-76
2018-01-15T03:26:27.283Z,-76
2018-01-15T03:27:27.420Z,-78
2018-01-15T03:28:27.148Z,-78
2018-01-15T03:29:27.156Z,-77
2018-01-15T03:30:26.916Z,-78
2018-01-15T03:31:27.211Z,-78
2018-01-15T03:32:27.218Z,-78
2018-01-15T03:33:27.202Z,-78
2018-01-15T03:34:27.746Z,-78
2018-01-15T03:35:27.269Z,-77
2018-01-15T03:36:27.371Z,-78
2018-01-15T03:37:27.240Z,-78
2018-01-15T03:38:27.335Z,-78
2018-01-15T03:39:27.124Z,-78
2018-01-15T03:40:27.040Z,-78
2018-01-15T03:41:27.206Z,-78
2018-01-15T03:42:26.865Z,-78
2018-01-15T03:43:27.036Z,-78
2018-01-15T03:44:27.263Z,-76
2018-01-15T03:45:27.112Z,-77
2018-01-15T03:46:27.183Z,-77
2018-01-15T03:47:27.234Z,-76
2018-01-15T03:48:27.290Z,-76
2018-01-15T03:49:26.924Z,-77
2018-01-15T03:50:27.107Z,-78
2018-01-15T03:51:27.136Z,-78
2018-01-15T03:52:27.021Z,-78
2018-01-15T03:53:27.279Z,-77
2018-01-15T03:54:27.177Z,-77
2018-01-15T03:55:27.102Z,-78
2018-01-15T03:56:26.844Z,-78
2018-01-15T03:57:27.446Z,-76
2018-01-15T03:58:27.571Z,-77
2018-01-15T03:59:26.308Z,-78
2018-01-15T04:00:26.753Z,-78
2018-01-15T04:01:27.287Z,-78
2018-01-15T04:02:26.792Z,-78
2018-01-15T04:03:27.207Z,-77
2018-01-15T04:04:27.304Z,-78
2018-01-15T04:05:26.560Z,-77
2018-01-15T04:06:27.153Z,-77
2018-01-15T04:07:27.215Z,-78
2018-01-15T04:08:27.268Z,-78
2018-01-15T04:09:27.249Z,-77
2018-01-15T04:10:27.275Z,-77
2018-01-15T04:11:27.370Z,-77
2018-01-15T04:12:27.544Z,-76
2018-01-15T04:13:27.501Z,-76
2018-01-15T04:14:26.847Z,-76
2018-01-15T04:15:27.667Z,-77
2018-01-15T04:16:27.116Z,-77
2018-01-15T04:17:27.522Z,-77
2018-01-15T04:18:26.978Z,-77
2018-01-15T04:19:27.430Z,-77
2018-01-15T04:20:27.639Z,-77
2018-01-15T04:21:27.426Z,-77
2018-01-15T04:22:28.080Z,-77
2018-01-15T04:23:27.473Z,-77
2018-01-15T04:24:26.614Z,-77
2018-01-15T04:25:27.344Z,-76
2018-01-15T04:26:34.526Z,-78
2018-01-15T04:27:27.240Z,-78
2018-01-15T04:28:27.264Z,-78
2018-01-15T04:29:26.954Z,-78
2018-01-15T04:30:27.274Z,-77
2018-01-15T04:31:27.471Z,-77
2018-01-15T04:32:26.739Z,-78
2018-01-15T04:33:27.283Z,-78
2018-01-15T04:34:27.343Z,-77
2018-01-15T04:35:27.387Z,-77
2018-01-15T04:36:27.830Z,-78
2018-01-15T04:37:26.847Z,-78
2018-01-15T04:38:27.184Z,-78
2018-01-15T04:39:27.849Z,-78
2018-01-15T04:40:27.454Z,-78
2018-01-15T04:41:27.163Z,-78
2018-01-15T04:42:27.368Z,-76
2018-01-15T04:43:26.379Z,-78
2018-01-15T04:44:26.347Z,-78
2018-01-15T04:45:26.252Z,-78
2018-01-15T04:46:26.294Z,-77
2018-01-15T04:47:26.210Z,-77
2018-01-15T04:48:25.984Z,-77
2018-01-15T04:49:26.410Z,-78
2018-01-15T04:50:26.183Z,-78
2018-01-15T04:51:26.240Z,-78
2018-01-15T04:52:26.019Z,-77
2018-01-15T04:53:26.464Z,-78
2018-01-15T04:54:26.269Z,-77
2018-01-15T04:55:27.035Z,-76
2018-01-15T04:56:26.221Z,-76
2018-01-15T04:57:26.381Z,-78
2018-01-15T04:58:25.930Z,-77
2018-01-15T04:59:26.860Z,-78
2018-01-15T05:00:26.467Z,-76
2018-01-15T05:01:26.384Z,-78
2018-01-15T05:02:26.556Z,-77
2018-01-15T05:03:26.153Z,-77
2018-01-15T05:04:26.416Z,-78
2018-01-15T05:05:26.094Z,-78
2018-01-15T05:06:26.334Z,-78
2018-01-15T05:07:26.615Z,-78
2018-01-15T05:08:26.153Z,-77
2018-01-15T05:09:26.188Z,-76
2018-01-15T05:10:26.434Z,-78
2018-01-15T05:11:26.122Z,-78
2018-01-15T05:12:26.229Z,-78
2018-01-15T05:13:26.477Z,-78
2018-01-15T05:14:26.062Z,-78
2018-01-15T05:15:26.351Z,-77
2018-01-15T05:16:26.134Z,-78
2018-01-15T05:17:26.374Z,-78
2018-01-15T05:18:26.599Z,-78
2018-01-15T05:19:26.182Z,-78
2018-01-15T05:20:26.744Z,-78
2018-01-15T05:21:26.189Z,-78
2018-01-15T05:22:26.379Z,-76
2018-01-15T05:23:26.161Z,-76
2018-01-15T05:24:26.249Z,-77
2018-01-15T05:25:26.357Z,-76
2018-01-15T05:26:26.443Z,-78
2018-01-15T05:27:26.339Z,-77
2018-01-15T05:28:26.024Z,-78
2018-01-15T05:29:27.365Z,-78
2018-01-15T05:30:25.938Z,-78
2018-01-15T05:31:26.065Z,-77
2018-01-15T05:32:25.950Z,-78
2018-01-15T05:33:26.413Z,-77
2018-01-15T05:34:26.269Z,-78
2018-01-15T05:35:26.942Z,-77
2018-01-15T05:36:25.852Z,-77
2018-01-15T05:37:26.294Z,-77
2018-01-15T05:38:26.016Z,-78
2018-01-15T05:39:26.706Z,-77
2018-01-15T05:40:30.728Z,-77
2018-01-15T05:41:26.201Z,-77
2018-01-15T05:42:25.879Z,-77
2018-01-15T05:43:26.986Z,-76
2018-01-15T05:44:26.446Z,-77
2018-01-15T05:45:26.419Z,-76
2018-01-15T05:46:26.578Z,-76
2018-01-15T05:47:26.028Z,-76
2018-01-15T05:48:26.102Z,-77
2018-01-15T05:49:26.418Z,-76
2018-01-15T05:50:26.014Z,-76
2018-01-15T05:51:26.589Z,-76
2018-01-15T05:52:25.973Z,-75
2018-01-15T05:53:25.981Z,-75
2018-01-15T05:54:25.978Z,-76
2018-01-15T05:55:26.232Z,-76
2018-01-15T05:56:27.655Z,-75
2018-01-15T05:57:25.929Z,-76
2018-01-15T05:58:26.810Z,-76
2018-01-15T05:59:26.011Z,-76
2018-01-15T06:00:26.361Z,-76
2018-01-15T06:01:26.393Z,-76
2018-01-15T06:02:26.317Z,-76
2018-01-15T06:03:26.370Z,-76
2018-01-15T06:04:26.399Z,-76
2018-01-15T06:05:25.885Z,-76
2018-01-15T06:06:26.306Z,-76
2018-01-15T06:07:26.536Z,-76
2018-01-15T06:08:26.622Z,-76
2018-01-15T06:09:26.470Z,-75
2018-01-15T06:10:26.518Z,-76
2018-01-15T06:11:26.632Z,-75
2018-01-15T06:12:26.214Z,-76
2018-01-15T06:13:27.536Z,-76
2018-01-15T06:14:25.474Z,-77
2018-01-15T06:15:25.415Z,-77
2018-01-15T06:16:25.328Z,-76
2018-01-15T06:17:25.499Z,-77
2018-01-15T06:18:25.486Z,-76
2018-01-15T06:19:25.554Z,-76
2018-01-15T06:20:25.361Z,-77
2018-01-15T06:21:25.208Z,-76
2018-01-15T06:22:25.374Z,-77
2018-01-15T06:23:25.381Z,-75
2018-01-15T06:24:25.319Z,-75
2018-01-15T06:25:25.392Z,-74
2018-01-15T06:26:25.434Z,-75
2018-01-15T06:27:25.395Z,-76
2018-01-15T06:28:25.440Z,-76
2018-01-15T06:29:25.416Z,-77
2018-01-15T06:30:25.305Z,-77
2018-01-15T06:31:25.447Z,-77
2018-01-15T06:32:25.329Z,-76
2018-01-15T06:33:25.701Z,-76
2018-01-15T06:34:25.321Z,-75
2018-01-15T06:35:25.335Z,-77
2018-01-15T06:36:25.164Z,-76
2018-01-15T06:37:25.886Z,-77
2018-01-15T06:38:25.322Z,-77
2018-01-15T06:39:25.478Z,-77
2018-01-15T06:40:25.432Z,-76
2018-01-15T06:41:25.438Z,-77
2018-01-15T06:42:25.468Z,-77
2018-01-15T06:43:25.757Z,-76
2018-01-15T06:44:25.277Z,-77
2018-01-15T06:45:25.532Z,-77
2018-01-15T06:46:25.576Z,-77
2018-01-15T06:47:25.351Z,-77
2018-01-15T06:48:25.438Z,-77
2018-01-15T06:49:25.597Z,-77
2018-01-15T06:50:25.501Z,-75
2018-01-15T06:51:25.429Z,-76
2018-01-15T06:52:25.581Z,-76
2018-01-15T06:53:25.573Z,-76
2018-01-15T06:54:25.397Z,-76
2018-01-15T06:55:25.576Z,-76
2018-01-15T06:56:25.492Z,-77
2018-01-15T06:57:25.540Z,-77
2018-01-15T06:58:25.400Z,-77
2018-01-15T06:59:25.596Z,-77
2018-01-15T07:00:25.571Z,-77
2018-01-15T07:01:25.642Z,-77
2018-01-15T07:02:25.438Z,-76
2018-01-15T07:03:25.555Z,-76
2018-01-15T07:04:25.275Z,-76
2018-01-15T07:05:25.896Z,-76
2018-01-15T07:06:25.575Z,-77
2018-01-15T07:07:26.066Z,-77
2018-01-15T07:08:25.511Z,-78
2018-01-15T07:09:25.400Z,-77
2018-01-15T07:10:25.509Z,-77
2018-01-15T07:11:25.721Z,-77
2018-01-15T07:12:25.634Z,-76
2018-01-15T07:13:25.725Z,-76
2018-01-15T07:14:25.659Z,-76
2018-01-15T07:15:25.556Z,-76
2018-01-15T07:16:25.706Z,-76
2018-01-15T07:17:25.559Z,-76
2018-01-15T07:18:25.526Z,-76
2018-01-15T07:19:25.562Z,-76
2018-01-15T07:20:26.284Z,-76
2018-01-15T07:21:26.033Z,-76
2018-01-15T07:22:25.554Z,-76
2018-01-15T07:23:25.501Z,-76
2018-01-15T07:24:25.515Z,-77
2018-01-15T07:25:25.661Z,-77
2018-01-15T07:26:25.756Z,-77
2018-01-15T07:27:25.786Z,-76
2018-01-15T07:28:25.626Z,-75
2018-01-15T07:29:25.562Z,-74
2018-01-15T07:30:25.636Z,-75
2018-01-15T07:31:25.558Z,-75
2018-01-15T07:32:25.888Z,-74
2018-01-15T07:33:25.889Z,-74
2018-01-15T07:34:25.564Z,-75
2018-01-15T07:35:25.552Z,-75
2018-01-15T07:36:26.138Z,-74
2018-01-15T07:37:25.595Z,-75
2018-01-15T07:38:26.169Z,-74
2018-01-15T07:39:25.377Z,-78
2018-01-15T07:40:25.572Z,-76
2018-01-15T07:41:25.834Z,-73
2018-01-15T07:42:25.747Z,-76
2018-01-15T07:43:25.871Z,-76
2018-01-15T07:44:25.530Z,-76
2018-01-15T07:45:25.527Z,-75
2018-01-15T07:46:25.565Z,-76
2018-01-15T07:47:25.755Z,-76
2018-01-15T07:48:25.829Z,-74
2018-01-15T07:49:27.014Z,-74
2018-01-15T07:50:25.501Z,-74
2018-01-15T07:51:26.451Z,-74
2018-01-15T07:52:25.492Z,-74
2018-01-15T07:53:25.799Z,-77
2018-01-15T07:54:25.834Z,-75
2018-01-15T07:55:25.486Z,-77
2018-01-15T07:56:25.752Z,-77
2018-01-15T07:57:25.679Z,-76
2018-01-15T07:58:25.547Z,-77
2018-01-15T07:59:25.772Z,-74
2018-01-15T08:00:25.767Z,-76
2018-01-15T08:01:25.635Z,-76
2018-01-15T08:02:25.772Z,-76
2018-01-15T08:03:25.559Z,-77
2018-01-15T08:04:25.551Z,-75
2018-01-15T08:05:25.760Z,-76
2018-01-15T08:06:25.724Z,-74
2018-01-15T08:07:25.841Z,-75
2018-01-15T08:08:25.838Z,-76
2018-01-15T08:09:25.647Z,-76
2018-01-15T08:10:25.941Z,-76
2018-01-15T08:11:26.096Z,-76
2018-01-15T08:12:25.500Z,-77
2018-01-15T08:13:25.947Z,-76
2018-01-15T08:14:25.892Z,-76
2018-01-15T08:15:25.799Z,-77
2018-01-15T08:16:25.512Z,-77
2018-01-15T08:17:25.771Z,-76
2018-01-15T08:18:25.839Z,-76
2018-01-15T08:19:25.872Z,-76
2018-01-15T08:20:25.999Z,-74
2018-01-15T08:21:25.785Z,-76
2018-01-15T08:22:25.750Z,-79
2018-01-15T08:23:25.824Z,-78
2018-01-15T08:24:25.734Z,-78
2018-01-15T08:25:25.660Z,-79
2018-01-15T08:26:25.733Z,-79
2018-01-15T08:27:25.771Z,-78
2018-01-15T08:28:25.709Z,-77
2018-01-15T08:29:25.696Z,-76
2018-01-15T08:30:25.964Z,-76
2018-01-15T08:31:25.620Z,-76
2018-01-15T08:32:25.581Z,-76
2018-01-15T08:33:25.680Z,-76
2018-01-15T08:34:25.926Z,-78
2018-01-15T08:35:25.943Z,-79
2018-01-15T08:36:25.608Z,-77
2018-01-15T08:37:25.909Z,-77
2018-01-15T08:38:25.916Z,-77
2018-01-15T08:39:25.808Z,-79
2018-01-15T08:40:26.327Z,-76
2018-01-15T08:41:25.904Z,-78
2018-01-15T08:42:25.841Z,-76
2018-01-15T08:43:25.964Z,-77
2018-01-15T08:44:26.850Z,-76
2018-01-15T08:45:25.553Z,-77
2018-01-15T08:46:25.642Z,-76
2018-01-15T08:47:25.959Z,-79
2018-01-15T08:48:25.887Z,-77
2018-01-15T08:49:25.762Z,-79
2018-01-15T08:50:25.734Z,-80
2018-01-15T08:51:25.751Z,-80
2018-01-15T08:52:26.214Z,-79
2018-01-15T08:53:25.905Z,-81
2018-01-15T08:54:25.771Z,-80
2018-01-15T08:55:25.968Z,-79
2018-01-15T08:56:25.770Z,-78
2018-01-15T08:57:25.602Z,-79
2018-01-15T08:58:25.904Z,-79
2018-01-15T08:59:26.030Z,-78
2018-01-15T09:00:25.841Z,-79
2018-01-15T09:01:25.868Z,-77
2018-01-15T09:02:25.782Z,-78
2018-01-15T09:03:25.915Z,-78
2018-01-15T09:04:25.685Z,-78
2018-01-15T09:05:25.836Z,-78
2018-01-15T09:06:25.777Z,-78
2018-01-15T09:07:25.934Z,-78
2018-01-15T09:08:25.907Z,-78
2018-01-15T09:09:25.867Z,-77
2018-01-15T09:10:25.778Z,-77
2018-01-15T09:11:25.652Z,-78
2018-01-15T09:12:25.869Z,-76
2018-01-15T09:13:26.781Z,-78
2018-01-15T09:14:25.724Z,-78
2018-01-15T09:15:25.948Z,-78
2018-01-15T09:16:26.011Z,-78
2018-01-15T09:17:26.188Z,-78
2018-01-15T09:18:25.916Z,-78
2018-01-15T09:19:25.908Z,-75
2018-01-15T09:20:25.755Z,-77
2018-01-15T09:21:26.060Z,-77
2018-01-15T09:22:26.545Z,-77
2018-01-15T09:23:26.012Z,-79
2018-01-15T09:24:26.005Z,-78
2018-01-15T09:25:25.937Z,-78
2018-01-15T09:26:25.977Z,-79
2018-01-15T09:27:26.114Z,-81
2018-01-15T09:28:26.066Z,-80
2018-01-15T09:29:25.905Z,-77
2018-01-15T09:30:25.842Z,-79
2018-01-15T09:31:25.836Z,-80
2018-01-15T09:32:25.959Z,-79
2018-01-15T09:33:25.822Z,-80
2018-01-15T09:34:25.780Z,-80
2018-01-15T09:35:25.761Z,-79
2018-01-15T09:36:25.844Z,-78
2018-01-15T09:37:26.757Z,-79
2018-01-15T09:38:25.884Z,-79
2018-01-15T09:39:26.137Z,-77
2018-01-15T09:40:26.050Z,-77
2018-01-15T09:41:25.750Z,-79
2018-01-15T09:42:25.806Z,-79
2018-01-15T09:43:25.828Z,-78
2018-01-15T09:44:25.996Z,-78
2018-01-15T09:45:25.897Z,-79
2018-01-15T09:46:25.969Z,-78
2018-01-15T09:47:26.100Z,-79
2018-01-15T09:48:26.186Z,-79
2018-01-15T09:49:26.118Z,-78
2018-01-15T09:50:26.050Z,-78
2018-01-15T09:51:26.006Z,-79
2018-01-15T09:52:25.989Z,-79
2018-01-15T09:53:26.075Z,-79
2018-01-15T09:54:26.121Z,-79
2018-01-15T09:55:26.203Z,-79
2018-01-15T09:56:25.861Z,-79
2018-01-15T09:57:26.119Z,-79
2018-01-15T09:58:25.948Z,-79
2018-01-15T09:59:26.094Z,-79
2018-01-15T10:00:26.114Z,-78
2018-01-15T10:01:26.073Z,-78
2018-01-15T10:02:26.101Z,-77
2018-01-15T10:03:26.031Z,-78
2018-01-15T10:04:26.034Z,-78
2018-01-15T10:05:26.362Z,-79
2018-01-15T10:06:26.164Z,-79
2018-01-15T10:07:26.676Z,-79
2018-01-15T10:08:26.077Z,-77
2018-01-15T10:09:26.153Z,-79
2018-01-15T10:10:26.107Z,-79
2018-01-15T10:11:26.706Z,-78
2018-01-15T10:12:26.483Z,-79
2018-01-15T10:13:26.795Z,-79
2018-01-15T10:14:25.519Z,-79
2018-01-15T10:15:25.533Z,-79
2018-01-15T10:16:25.362Z,-79
2018-01-15T10:17:25.668Z,-77
2018-01-15T10:18:25.545Z,-78
2018-01-15T10:19:25.604Z,-78
2018-01-15T10:20:25.613Z,-77
2018-01-15T10:21:25.402Z,-79
2018-01-15T10:22:25.454Z,-79
2018-01-15T10:23:25.365Z,-78
2018-01-15T10:24:25.341Z,-79
2018-01-15T10:25:26.832Z,-79
2018-01-15T10:26:25.639Z,-79
2018-01-15T10:27:25.327Z,-80
2018-01-15T10:28:25.421Z,-79
2018-01-15T10:29:25.570Z,-76
2018-01-15T10:30:25.256Z,-76
2018-01-15T10:31:25.543Z,-76
2018-01-15T10:32:25.312Z,-76
2018-01-15T10:33:25.597Z,-77
2018-01-15T10:34:25.136Z,-77
2018-01-15T10:35:25.155Z,-77
2018-01-15T10:36:25.410Z,-76
2018-01-15T10:37:25.272Z,-77
2018-01-15T10:38:25.416Z,-74
2018-01-15T10:39:25.319Z,-75
2018-01-15T10:40:25.399Z,-74
2018-01-15T10:41:25.358Z,-74
2018-01-15T10:42:25.590Z,-73
2018-01-15T10:43:25.435Z,-73
2018-01-15T10:44:25.544Z,-72
2018-01-15T10:45:25.576Z,-73
2018-01-15T10:46:25.560Z,-72
2018-01-15T10:47:25.475Z,-75
2018-01-15T10:48:25.455Z,-74
2018-01-15T10:49:25.654Z,-74
2018-01-15T10:50:25.587Z,-75
2018-01-15T10:51:25.575Z,-74
2018-01-15T10:52:25.583Z,-74
2018-01-15T10:53:25.665Z,-73
2018-01-15T10:54:25.699Z,-73
2018-01-15T10:55:25.546Z,-73
2018-01-15T10:56:25.505Z,-73
2018-01-15T10:57:25.401Z,-74
2018-01-15T10:58:25.523Z,-73
2018-01-15T10:59:25.558Z,-73
2018-01-15T11:00:25.250Z,-73
2018-01-15T11:01:25.678Z,-74
2018-01-15T11:02:25.566Z,-74
2018-01-15T11:03:25.482Z,-73
2018-01-15T11:04:25.556Z,-72
2018-01-15T11:05:26.378Z,-73
2018-01-15T11:06:25.801Z,-72
2018-01-15T11:07:25.637Z,-73
2018-01-15T11:08:25.619Z,-75
2018-01-15T11:09:25.572Z,-77
2018-01-15T11:10:25.415Z,-76
2018-01-15T11:11:25.669Z,-76
2018-01-15T11:12:25.687Z,-77
2018-01-15T11:13:25.802Z,-77
2018-01-15T11:14:25.829Z,-75
2018-01-15T11:15:25.530Z,-76
2018-01-15T11:16:25.419Z,-75
2018-01-15T11:17:25.485Z,-76
2018-01-15T11:18:25.484Z,-76
2018-01-15T11:19:25.705Z,-75
2018-01-15T11:20:25.519Z,-76
2018-01-15T11:21:25.634Z,-76
2018-01-15T11:22:25.688Z,-77
2018-01-15T11:23:25.370Z,-77
2018-01-15T11:24:25.514Z,-76
2018-01-15T11:25:25.675Z,-76
2018-01-15T11:26:25.499Z,-76
2018-01-15T11:27:25.518Z,-77
2018-01-15T11:28:25.656Z,-76
2018-01-15T11:29:25.517Z,-76
2018-01-15T11:30:25.792Z,-76
2018-01-15T11:31:25.514Z,-77
2018-01-15T11:32:25.846Z,-76
2018-01-15T11:33:25.679Z,-77
2018-01-15T11:34:25.902Z,-76
2018-01-15T11:35:25.736Z,-76
2018-01-15T11:36:25.771Z,-76
2018-01-15T11:37:25.607Z,-76
2018-01-15T11:38:25.637Z,-76
2018-01-15T11:39:25.653Z,-76
2018-01-15T11:40:25.606Z,-76
2018-01-15T11:41:25.730Z,-76
2018-01-15T11:42:25.516Z,-76
2018-01-15T11:43:25.553Z,-77
2018-01-15T11:44:25.858Z,-77
2018-01-15T11:45:25.582Z,-76
2018-01-15T11:46:26.021Z,-77
2018-01-15T11:47:25.599Z,-74
2018-01-15T11:48:25.707Z,-72
2018-01-15T11:49:25.704Z,-74
2018-01-15T11:50:25.672Z,-73
2018-01-15T11:51:25.904Z,-74
2018-01-15T11:52:25.691Z,-74
2018-01-15T11:53:25.633Z,-74
2018-01-15T11:54:25.753Z,-74
2018-01-15T11:55:25.410Z,-74
2018-01-15T11:56:25.597Z,-74
2018-01-15T11:57:25.719Z,-74
2018-01-15T11:58:25.583Z,-73
2018-01-15T11:59:25.593Z,-74
2018-01-15T12:00:25.673Z,-74
2018-01-15T12:01:25.706Z,-74
2018-01-15T12:02:25.676Z,-74
2018-01-15T12:03:25.818Z,-73
2018-01-15T12:04:25.797Z,-74
2018-01-15T12:05:25.644Z,-74
2018-01-15T12:06:25.397Z,-74
2018-01-15T12:07:25.748Z,-74
2018-01-15T12:08:25.740Z,-74
2018-01-15T12:09:25.739Z,-74
2018-01-15T12:10:25.536Z,-74
2018-01-15T12:11:26.011Z,-73
2018-01-15T12:12:25.367Z,-73
2018-01-15T12:13:25.863Z,-74
2018-01-15T12:14:25.777Z,-74
2018-01-15T12:15:25.770Z,-73
2018-01-15T12:16:25.552Z,-75
2018-01-15T12:17:25.702Z,-75
2018-01-15T12:18:25.569Z,-75
2018-01-15T12:19:25.655Z,-75
2018-01-15T12:20:25.681Z,-75
2018-01-15T12:21:25.807Z,-75
2018-01-15T12:22:25.711Z,-75
2018-01-15T12:23:25.716Z,-74
2018-01-15T12:24:25.814Z,-74
2018-01-15T12:25:25.674Z,-75
2018-01-15T12:26:25.738Z,-76
2018-01-15T12:27:25.780Z,-76
2018-01-15T12:28:25.695Z,-76
2018-01-15T12:29:26.135Z,-76
2018-01-15T12:30:25.764Z,-76
2018-01-15T12:31:25.941Z,-76
2018-01-15T12:32:25.824Z,-76
2018-01-15T12:33:25.838Z,-77
2018-01-15T12:34:25.909Z,-76
2018-01-15T12:35:25.665Z,-74
2018-01-15T12:36:25.800Z,-74
2018-01-15T12:37:25.438Z,-74
2018-01-15T12:38:25.651Z,-75
2018-01-15T12:39:25.993Z,-73
2018-01-15T12:40:25.675Z,-74
2018-01-15T12:41:25.942Z,-73
2018-01-15T12:42:25.710Z,-72
2018-01-15T12:43:25.387Z,-73
2018-01-15T12:44:25.986Z,-73
2018-01-15T12:45:25.965Z,-73
2018-01-15T12:46:25.657Z,-74
2018-01-15T12:47:25.715Z,-75
2018-01-15T12:48:25.669Z,-75
2018-01-15T12:49:25.636Z,-75
2018-01-15T12:50:25.886Z,-75
2018-01-15T12:51:25.782Z,-74
2018-01-15T12:52:25.676Z,-74
2018-01-15T12:53:25.797Z,-75
2018-01-15T12:54:25.684Z,-75
2018-01-15T12:55:25.859Z,-75
2018-01-15T12:56:25.881Z,-75
2018-01-15T12:57:25.787Z,-75
2018-01-15T12:58:25.778Z,-75
2018-01-15T12:59:25.811Z,-75
2018-01-15T13:00:25.757Z,-75
2018-01-15T13:01:26.041Z,-74
2018-01-15T13:02:26.009Z,-75
2018-01-15T13:03:25.793Z,-75
2018-01-15T13:04:25.604Z,-74
2018-01-15T13:05:25.919Z,-76
2018-01-15T13:06:25.901Z,-76
2018-01-15T13:07:25.626Z,-77
2018-01-15T13:08:26.008Z,-77
2018-01-15T13:09:25.975Z,-75
2018-01-15T13:10:30.813Z,-75
2018-01-15T13:11:26.160Z,-75
2018-01-15T13:12:25.793Z,-76
2018-01-15T13:13:25.936Z,-77
2018-01-15T13:14:26.021Z,-77
2018-01-15T13:15:25.835Z,-77
2018-01-15T13:16:25.988Z,-77
2018-01-15T13:17:25.832Z,-77
2018-01-15T13:18:25.914Z,-76
2018-01-15T13:19:25.965Z,-77
2018-01-15T13:20:26.010Z,-76
2018-01-15T13:21:25.752Z,-77
2018-01-15T13:22:25.705Z,-77
2018-01-15T13:23:26.608Z,-77
2018-01-15T13:24:25.726Z,-77
2018-01-15T13:25:25.977Z,-77
2018-01-15T13:26:26.199Z,-75
2018-01-15T13:27:25.981Z,-75
2018-01-15T13:28:26.034Z,-75
2018-01-15T13:29:25.981Z,-75
2018-01-15T13:30:25.854Z,-77
2018-01-15T13:31:25.768Z,-77
2018-01-15T13:32:26.004Z,-77
2018-01-15T13:33:25.888Z,-77
2018-01-15T13:34:26.004Z,-77
2018-01-15T13:35:25.945Z,-76
2018-01-15T13:36:25.858Z,-77
2018-01-15T13:37:25.720Z,-77
2018-01-15T13:38:25.992Z,-76
2018-01-15T13:39:25.950Z,-77
2018-01-15T13:40:25.904Z,-77
2018-01-15T13:41:25.948Z,-77
2018-01-15T13:42:25.659Z,-76
2018-01-15T13:43:25.784Z,-77
2018-01-15T13:44:26.061Z,-77
2018-01-15T13:45:25.925Z,-76
2018-01-15T13:46:25.970Z,-76
2018-01-15T13:47:26.105Z,-77
2018-01-15T13:48:26.060Z,-76